Pagrindinis puslapis
METAR-TAF:

METAR-TAF

Oro uostai :

Cruzeiro do Sul, Akrė, Brazilija

platuma: 07-38S, ilguma: 072-40W, Aukštis: 170 m

Dabartinis oras

Ataskaita buvo paskelbta 3 valandos ir 46 minutes, ne 19:00 UTC
Vėjas 9 kt iš Pietvakarių
Temperatūra 30°C
Drėgmė 79%
Slėgis 1009 hPa
Matomumas 10 km arba daugiau
Išsisklaidę debesys ne aukštis 3000 ft
Su prošvaistėmis ne aukštis 10000 ft

METAR: SBCZ 051900Z 23009KT 9999 SCT030 BKN100 30/26 Q1009

Laikas: 17:46 (22:46 UTC)


TAF: trūkstamas

Orai ataskaitas ir orų prognozės (METAR, TAF).

turimą stotys yra geltonos ir raudonos taškus žemėlapyje.

Perkelti pele per norėdami pamatyti stoties vardą.

Tada spustelėkite, norėdami matyti oro stebėjimo ir prognozės.

Norėdami pakeisti žemėlapį: spustelėkite ant žalios mygtukų su juodo kryžiaus žemyn,; žalią mygtuką su brūkšneliu, jei norite nutolinti; arba žalių rodyklių gretimoms žemėlapius.


METAR-TAF: